Time;durP1;ratioP1;P1;durP2;ratioP2;P2;SDS_P1;SDS_P2;PMS_P1;PMS_P2;Temp;Humidity;BMP_temperature;BMP_pressure;BME280_temperature;BME280_humidity;BME280_pressure;Samples;Min_cycle;Max_cycle;Signal;HPM_P1;HPM_P2
2022/04/12 00:00:13;;;;;;;15.95;5.05;;;5.70;1.00;;;;;;5061574;28;20235;-79
2022/04/12 00:02:40;;;;;;;6.32;4.75;;;5.70;1.00;;;;;;5059397;28;20280;-80
2022/04/12 00:05:09;;;;;;;5.50;4.40;;;5.70;10.90;;;;;;5058718;28;20203;-82
2022/04/12 00:07:36;;;;;;;5.25;4.75;;;5.60;1.00;;;;;;5058505;28;20223;-81
2022/04/12 00:10:04;;;;;;;8.20;5.22;;;5.60;1.00;;;;;;5058433;28;20585;-80
2022/04/12 00:12:30;;;;;;;4.80;4.10;;;5.60;1.00;;;;;;5057290;28;20673;-80
2022/04/12 00:14:57;;;;;;;6.40;4.65;;;5.60;1.00;;;;;;5057608;28;20230;-81
2022/04/12 00:20:10;;;;;;;7.40;5.00;;;5.60;1.00;;;;;;5057666;28;20187;-79
2022/04/12 00:22:38;;;;;;;4.68;4.25;;;5.50;1.00;;;;;;5057909;28;20203;-80
2022/04/12 00:25:08;;;;;;;9.75;5.28;;;5.50;1.00;;;;;;5057927;28;20264;-80
2022/04/12 00:27:34;;;;;;;7.45;5.28;;;5.40;1.00;;;;;;5057642;28;20256;-80
2022/04/12 00:30:01;;;;;;;5.63;4.78;;;5.20;1.00;;;;;;5057712;28;20214;-80
2022/04/12 00:32:29;;;;;;;8.70;4.63;;;5.20;1.00;;;;;;5058717;28;20245;-80
2022/04/12 00:34:55;;;;;;;5.22;4.72;;;5.10;1.00;;;;;;5060436;28;20238;-78
2022/04/12 00:37:22;;;;;;;6.53;4.70;;;5.10;1.00;;;;;;5060199;28;20231;-80
2022/04/12 00:39:48;;;;;;;9.07;4.90;;;5.10;1.00;;;;;;5058132;28;20248;-80
2022/04/12 00:42:15;;;;;;;5.70;4.70;;;5.10;1.00;;;;;;5058486;28;20203;-80
2022/04/12 00:44:42;;;;;;;6.50;4.45;;;5.10;1.00;;;;;;5057690;28;20566;-81
2022/04/12 00:47:08;;;;;;;9.23;5.13;;;5.10;1.00;;;;;;5071233;22;20223;-84
2022/04/12 00:49:36;;;;;;;5.88;4.82;;;5.00;1.00;;;;;;5059315;28;20257;-84
2022/04/12 00:52:05;;;;;;;7.57;5.07;;;5.70;5.10;;;;;;5059981;28;20253;-84
2022/04/12 00:54:33;;;;;;;6.00;4.95;;;3.80;2.80;;;;;;5068057;28;20207;-83
2022/04/12 00:57:00;;;;;;;5.75;4.50;;;4.90;1.00;;;;;;5078184;28;20211;-82
2022/04/12 00:59:27;;;;;;;5.95;4.22;;;5.00;1.00;;;;;;5078660;28;20214;-82
2022/04/12 01:01:54;;;;;;;5.18;4.60;;;5.00;1.00;;;;;;5078406;28;20179;-82
2022/04/12 01:04:20;;;;;;;5.22;4.65;;;4.90;1.00;;;;;;5078397;28;20226;-81
2022/04/12 01:06:48;;;;;;;4.85;4.45;;;4.90;1.00;;;;;;5077937;28;20213;-81
2022/04/12 01:09:15;;;;;;;5.43;4.35;;;5.00;18.30;;;;;;5078154;28;20206;-82
2022/04/12 01:11:47;;;;;;;4.55;4.15;;;5.00;1.00;;;;;;5078146;28;20208;-82
2022/04/12 01:14:14;;;;;;;7.72;4.55;;;4.90;1.00;;;;;;5077546;28;20195;-82
2022/04/12 01:16:41;;;;;;;4.82;4.43;;;4.90;1.00;;;;;;5074398;28;20230;-83
2022/04/12 01:19:08;;;;;;;6.72;4.47;;;4.90;1.20;;;;;;5070706;28;20206;-84
2022/04/12 01:21:40;;;;;;;5.22;4.00;;;4.80;50.30;;;;;;5066765;28;20214;-83
2022/04/12 01:24:08;;;;;;;8.57;4.38;;;4.80;11.50;;;;;;5065444;28;20217;-83
2022/04/12 01:26:35;;;;;;;5.32;3.75;;;4.90;12.30;;;;;;5067445;28;20223;-82
2022/04/12 01:29:01;;;;;;;6.53;3.53;;;4.90;99.90;;;;;;5069835;28;20218;-83
2022/04/12 01:31:28;;;;;;;7.78;4.25;;;4.90;29.10;;;;;;5071572;28;20627;-83
2022/04/12 01:33:55;;;;;;;6.88;4.50;;;4.90;74.00;;;;;;5071950;28;20241;-83
2022/04/12 01:36:22;;;;;;;5.90;4.10;;;4.80;99.90;;;;;;5073333;28;20213;-83
2022/04/12 01:38:48;;;;;;;5.03;4.32;;;4.90;18.10;;;;;;5073847;28;20207;-83
2022/04/12 01:41:17;;;;;;;6.65;5.13;;;4.90;99.90;;;;;;5075577;28;20249;-83
2022/04/12 01:43:44;;;;;;;6.38;4.55;;;4.80;99.90;;;;;;5073488;28;20210;-83
2022/04/12 01:46:11;;;;;;;4.68;4.07;;;;;;;;;;5071720;28;20206;-83
2022/04/12 01:48:37;;;;;;;6.75;4.75;;;4.80;31.10;;;;;;5071468;28;20199;-83
2022/04/12 01:51:04;;;;;;;4.43;4.03;;;4.70;81.30;;;;;;5074789;28;20233;-83
2022/04/12 01:53:30;;;;;;;7.50;5.30;;;4.80;99.90;;;;;;5072779;28;20218;-83
2022/04/12 01:55:57;;;;;;;4.82;4.43;;;4.70;99.90;;;;;;5068140;28;20207;-83
2022/04/12 01:58:25;;;;;;;5.95;4.63;;;4.70;99.90;;;;;;5073167;28;20253;-84
2022/04/12 02:00:52;;;;;;;5.13;4.63;;;4.60;99.90;;;;;;5079810;28;20207;-84
2022/04/12 02:03:20;;;;;;;9.18;4.15;;;4.50;99.90;;;;;;5080346;28;20187;-83
2022/04/12 02:05:47;;;;;;;7.65;5.10;;;4.40;1.00;;;;;;5080615;28;20201;-83
2022/04/12 02:08:13;;;;;;;7.35;4.72;;;4.40;99.90;;;;;;5081188;28;20207;-82
2022/04/12 02:10:40;;;;;;;5.57;4.22;;;4.40;30.10;;;;;;5081182;28;20186;-83
2022/04/12 02:13:06;;;;;;;7.57;4.50;;;4.40;99.90;;;;;;5080881;28;20214;-83
2022/04/12 02:15:34;;;;;;;5.70;4.53;;;4.50;1.00;;;;;;5080497;28;20186;-83
2022/04/12 02:18:01;;;;;;;8.75;5.00;;;4.40;99.90;;;;;;5080933;28;20261;-83
2022/04/12 02:20:28;;;;;;;6.28;5.20;;;4.20;1.00;;;;;;5081059;28;20182;-83
2022/04/12 02:22:54;;;;;;;10.20;4.82;;;4.30;99.90;;;;;;5081305;28;20258;-83
2022/04/12 02:25:21;;;;;;;8.55;5.32;;;4.30;99.90;;;;;;5080856;28;20206;-83
2022/04/12 02:27:48;;;;;;;6.78;5.00;;;4.40;99.90;;;;;;5081049;28;20203;-83
2022/04/12 02:30:15;;;;;;;6.25;4.85;;;4.30;1.00;;;;;;5080007;28;20187;-83
2022/04/12 02:32:43;;;;;;;5.70;5.13;;;4.30;1.00;;;;;;5080147;28;20187;-83
2022/04/12 02:35:10;;;;;;;7.15;5.15;;;4.30;1.00;;;;;;5071060;28;20227;-84
2022/04/12 02:37:37;;;;;;;5.70;5.10;;;4.40;1.00;;;;;;5069401;28;20223;-84
2022/04/12 02:40:04;;;;;;;7.13;5.05;;;4.10;22.50;;;;;;5067261;28;20207;-84
2022/04/12 02:42:31;;;;;;;5.50;5.00;;;4.30;1.00;;;;;;5068931;28;20206;-84
2022/04/12 02:44:58;;;;;;;8.52;4.78;;;4.30;99.90;;;;;;5068036;28;20194;-84
2022/04/12 02:47:26;;;;;;;8.48;5.15;;;4.30;99.90;;;;;;5063865;28;20277;-81
2022/04/12 02:49:54;;;;;;;7.93;5.05;;;4.20;99.90;;;;;;5064449;28;20221;-82
2022/04/12 02:52:21;;;;;;;8.70;5.50;;;4.20;99.90;;;;;;5063966;28;20207;-83
2022/04/12 02:54:47;;;;;;;6.03;5.13;;;4.10;99.90;;;;;;5063837;28;20348;-82
2022/04/12 02:57:15;;;;;;;5.00;4.40;;;4.20;99.90;;;;;;5063528;28;20219;-82
2022/04/12 02:59:41;;;;;;;5.82;3.65;;;4.10;1.00;;;;;;5063982;28;20207;-83
2022/04/12 03:02:08;;;;;;;9.90;4.95;;;4.10;1.00;;;;;;5066785;28;20225;-83
2022/04/12 03:04:35;;;;;;;9.60;5.70;;;4.10;99.90;;;;;;5059575;28;20253;-82
2022/04/12 03:07:03;;;;;;;6.43;5.50;;;4.00;29.30;;;;;;5059061;28;20242;-83
2022/04/12 03:09:30;;;;;;;5.32;4.60;;;4.40;99.90;;;;;;5059705;28;20203;-83
2022/04/12 03:11:56;;;;;;;7.95;5.38;;;4.00;1.00;;;;;;5068299;28;20685;-82
2022/04/12 03:14:23;;;;;;;5.25;4.72;;;4.40;99.90;;;;;;5076214;28;20253;-82
2022/04/12 03:16:50;;;;;;;5.97;4.78;;;4.10;99.90;;;;;;5074825;28;20227;-81
2022/04/12 03:19:16;;;;;;;8.85;4.47;;;4.10;99.90;;;;;;5069986;28;20203;-83
2022/04/12 03:21:43;;;;;;;8.20;4.80;;;4.00;99.90;;;;;;5063314;28;20211;-83
2022/04/12 03:24:11;;;;;;;5.28;4.35;;;4.00;1.00;;;;;;5062378;28;20206;-82
2022/04/12 03:26:37;;;;;;;6.10;4.75;;;4.00;99.90;;;;;;5062321;28;20604;-82
2022/04/12 03:29:04;;;;;;;4.78;4.28;;;4.00;99.90;;;;;;5063111;28;20206;-83
2022/04/12 03:31:31;;;;;;;8.02;4.95;;;4.00;1.00;;;;;;5062756;28;20206;-82
2022/04/12 03:33:57;;;;;;;7.47;5.30;;;4.00;1.00;;;;;;5058390;28;20261;-82
2022/04/12 03:36:24;;;;;;;5.78;4.28;;;4.10;49.20;;;;;;5057898;28;20234;-82
2022/04/12 03:38:51;;;;;;;7.70;5.55;;;3.90;1.00;;;;;;5059686;28;20664;-83
2022/04/12 03:41:22;;;;;;;5.90;4.43;;;3.90;99.90;;;;;;5058600;28;20207;-83
2022/04/12 03:43:50;;;;;;;5.07;4.50;;;3.90;1.00;;;;;;5060288;28;20179;-82
2022/04/12 03:46:16;;;;;;;7.63;5.45;;;3.70;99.90;;;;;;5060663;28;20639;-81
2022/04/12 03:48:44;;;;;;;5.25;4.63;;;3.80;1.00;;;;;;5064213;28;20191;-82
2022/04/12 03:51:11;;;;;;;11.85;6.10;;;3.80;12.40;;;;;;5061929;28;20203;-82
2022/04/12 03:53:38;;;;;;;5.40;4.90;;;3.80;99.90;;;;;;5062254;28;20209;-83
2022/04/12 03:56:07;;;;;;;8.02;5.00;;;3.70;1.00;;;;;;5063007;28;20260;-82
2022/04/12 03:58:35;;;;;;;6.90;5.38;;;3.70;99.90;;;;;;5061729;28;20227;-81
2022/04/12 04:01:02;;;;;;;9.35;5.13;;;3.70;99.90;;;;;;5067194;28;20229;-82
2022/04/12 04:03:29;;;;;;;12.65;5.30;;;3.70;1.00;;;;;;5078751;28;20201;-81
2022/04/12 04:05:56;;;;;;;7.30;5.55;;;3.70;1.00;;;;;;5079142;28;20207;-81
2022/04/12 04:08:22;;;;;;;10.65;6.05;;;3.70;1.00;;;;;;5076219;28;20268;-82
2022/04/12 04:10:49;;;;;;;8.07;5.90;;;3.70;40.80;;;;;;5073902;28;20207;-83
2022/04/12 04:13:17;;;;;;;8.27;5.20;;;3.70;4.90;;;;;;5072313;28;20203;-83
2022/04/12 04:15:45;;;;;;;7.97;5.43;;;3.60;99.90;;;;;;5073115;28;20253;-83
2022/04/12 04:18:12;;;;;;;9.40;5.20;;;3.60;99.90;;;;;;5078400;28;20257;-81
2022/04/12 04:20:39;;;;;;;9.43;5.05;;;3.50;99.90;;;;;;5078200;28;20194;-82
2022/04/12 04:23:06;;;;;;;7.82;5.88;;;3.60;99.90;;;;;;5077651;28;20207;-82
2022/04/12 04:25:34;;;;;;;6.95;5.30;;;3.50;1.00;;;;;;5077984;28;20199;-81
2022/04/12 04:28:00;;;;;;;7.72;5.60;;;3.60;1.00;;;;;;5079305;28;20206;-80
2022/04/12 04:30:31;;;;;;;14.98;6.38;;;3.50;1.00;;;;;;5079193;28;20203;-79
2022/04/12 04:32:59;;;;;;;16.70;6.63;;;3.50;99.90;;;;;;5079180;28;20178;-80
2022/04/12 04:35:26;;;;;;;9.00;5.95;;;3.60;99.90;;;;;;5078075;28;20436;-79
2022/04/12 04:37:53;;;;;;;9.05;6.05;;;3.60;99.90;;;;;;5078763;28;20203;-81
2022/04/12 04:40:22;;;;;;;9.52;6.18;;;3.50;99.90;;;;;;5078282;28;20206;-80
2022/04/12 04:42:52;;;;;;;10.13;6.82;;;3.50;95.30;;;;;;5073965;28;20192;-81
2022/04/12 04:45:19;;;;;;;9.10;6.90;;;3.50;99.90;;;;;;5070459;28;20209;-81
2022/04/12 04:47:50;;;;;;;5.85;5.13;;;3.50;1.00;;;;;;5065715;28;20230;-82
2022/04/12 04:50:19;;;;;;;8.82;5.95;;;4.80;99.90;;;;;;5061476;28;20291;-82
2022/04/12 04:52:46;;;;;;;7.75;6.03;;;3.60;1.00;;;;;;5060475;28;20206;-81
2022/04/12 04:55:12;;;;;;;8.15;6.22;;;3.60;1.00;;;;;;5060560;28;20233;-80
2022/04/12 04:57:39;;;;;;;9.82;6.03;;;3.50;99.90;;;;;;5061266;28;20225;-82
2022/04/12 05:00:07;;;;;;;6.65;5.78;;;3.60;99.90;;;;;;5073095;28;20206;-82
2022/04/12 05:02:34;;;;;;;6.55;5.93;;;3.50;99.90;;;;;;5070212;28;20612;-81
2022/04/12 05:05:03;;;;;;;6.25;5.65;;;3.50;99.90;;;;;;5062058;28;20226;-82
2022/04/12 05:07:31;;;;;;;10.35;6.57;;;3.60;99.90;;;;;;5061368;28;20222;-82
2022/04/12 05:09:58;;;;;;;10.43;7.85;;;3.60;7.30;;;;;;5060591;28;20203;-82
2022/04/12 05:12:25;;;;;;;9.27;7.53;;;3.60;1.00;;;;;;5060683;28;20203;-83
2022/04/12 05:14:51;;;;;;;9.77;6.70;;;3.50;21.20;;;;;;5061030;28;20215;-83
2022/04/12 05:17:25;;;;;;;11.13;5.82;;;3.60;99.90;;;;;;5060307;28;20305;-83
2022/04/12 05:19:53;;;;;;;8.40;6.70;;;3.60;1.00;;;;;;5063770;28;20191;-83
2022/04/12 05:22:20;;;;;;;8.32;6.68;;;3.70;99.90;;;;;;5075796;28;20250;-82
2022/04/12 05:24:48;;;;;;;9.68;6.38;;;3.70;1.00;;;;;;5075799;28;20190;-82
2022/04/12 05:27:14;;;;;;;9.02;6.93;;;3.70;1.00;;;;;;5073963;28;20210;-82
2022/04/12 05:29:41;;;;;;;12.13;7.95;;;3.80;1.00;;;;;;5060269;28;20199;-83
2022/04/12 05:32:09;;;;;;;7.65;6.93;;;3.80;99.90;;;;;;5058404;28;20557;-83
2022/04/12 05:34:36;;;;;;;14.65;6.70;;;3.90;99.90;;;;;;5056818;28;20309;-82
2022/04/12 05:37:03;;;;;;;9.50;7.07;;;3.90;1.00;;;;;;5056989;28;20709;-83
2022/04/12 05:39:30;;;;;;;12.27;7.32;;;3.90;1.00;;;;;;5057919;28;20199;-82
2022/04/12 05:42:00;;;;;;;10.88;7.75;;;4.20;1.00;;;;;;5063677;28;20187;-83
2022/04/12 05:44:27;;;;;;;10.57;7.45;;;4.10;99.90;;;;;;5064815;28;20184;-83
2022/04/12 05:46:54;;;;;;;10.00;8.75;;;4.10;99.90;;;;;;5062085;28;20302;-83
2022/04/12 05:49:20;;;;;;;8.38;6.50;;;4.20;23.30;;;;;;5063924;28;20191;-83
2022/04/12 05:51:47;;;;;;;7.75;6.47;;;4.20;1.00;;;;;;5062626;28;20241;-83
2022/04/12 05:54:13;;;;;;;13.88;7.75;;;4.40;1.00;;;;;;5072154;28;20233;-84
2022/04/12 05:56:40;;;;;;;9.20;7.78;;;4.30;99.90;;;;;;5071416;28;20223;-83
2022/04/12 05:59:08;;;;;;;13.45;7.15;;;4.40;99.90;;;;;;5071331;28;20225;-82
2022/04/12 06:01:35;;;;;;;9.63;6.88;;;4.40;1.50;;;;;;5067296;28;20214;-83
2022/04/12 06:04:02;;;;;;;9.95;7.80;;;4.50;99.90;;;;;;5062924;28;20256;-82
2022/04/12 06:06:29;;;;;;;10.23;7.97;;;4.80;99.90;;;;;;5063664;28;20221;-83
2022/04/12 06:08:55;;;;;;;10.45;7.45;;;4.70;1.00;;;;;;5061844;28;20207;-84
2022/04/12 06:11:22;;;;;;;11.88;7.80;;;4.80;99.90;;;;;;5060871;28;20207;-84
2022/04/12 06:13:48;;;;;;;12.35;9.48;;;4.90;99.90;;;;;;5061401;28;20211;-82
2022/04/12 06:16:16;;;;;;;10.57;7.20;;;4.70;99.90;;;;;;5064702;28;20266;-83
2022/04/12 06:18:43;;;;;;;11.88;7.30;;;5.00;99.90;;;;;;5065038;28;20211;-85
2022/04/12 06:21:10;;;;;;;11.15;7.50;;;5.00;99.90;;;;;;5067006;28;20298;-83
2022/04/12 06:23:36;;;;;;;16.48;8.23;;;5.10;79.20;;;;;;5065989;28;20233;-82
2022/04/12 06:26:03;;;;;;;15.70;8.35;;;5.20;1.00;;;;;;5065262;28;20203;-83
2022/04/12 06:28:30;;;;;;;8.27;7.28;;;5.20;1.00;;;;;;5069101;28;20223;-83
2022/04/12 06:30:58;;;;;;;14.10;7.65;;;5.30;1.00;;;;;;5066794;28;20204;-84
2022/04/12 06:33:26;;;;;;;11.50;7.53;;;5.20;1.00;;;;;;5068780;28;20203;-84
2022/04/12 06:35:53;;;;;;;8.60;7.72;;;5.50;1.00;;;;;;5072460;28;20219;-83
2022/04/12 06:38:20;;;;;;;11.15;8.07;;;5.60;1.00;;;;;;5075312;28;20223;-83
2022/04/12 06:40:49;;;;;;;10.25;7.63;;;5.70;1.00;;;;;;5075732;28;20187;-83
2022/04/12 06:43:18;;;;;;;13.10;9.50;;;5.90;1.00;;;;;;5076027;28;20278;-84
2022/04/12 06:45:45;;;;;;;13.90;9.07;;;;;;;;;;5075365;28;20207;-82
2022/04/12 06:48:12;;;;;;;12.50;9.07;;;6.10;99.90;;;;;;5074478;28;20219;-83
2022/04/12 06:50:40;;;;;;;11.70;8.60;;;7.80;99.90;;;;;;5073413;28;20207;-82
2022/04/12 06:53:07;;;;;;;9.73;8.60;;;6.70;99.90;;;;;;5074029;28;20208;-83
2022/04/12 06:55:34;;;;;;;16.13;8.63;;;6.40;99.90;;;;;;5072104;28;20732;-83
2022/04/12 06:58:00;;;;;;;9.70;7.68;;;9.40;99.90;;;;;;5074986;28;20290;-82
2022/04/12 07:00:27;;;;;;;10.07;8.02;;;6.70;99.90;;;;;;5074611;28;20682;-82
2022/04/12 07:02:54;;;;;;;8.73;7.63;;;6.80;99.90;;;;;;5073689;28;20208;-84
2022/04/12 07:05:20;;;;;;;11.55;7.43;;;6.90;45.30;;;;;;5069886;28;20211;-83
2022/04/12 07:07:48;;;;;;;11.65;7.85;;;7.00;15.80;;;;;;5065763;28;20236;-83
2022/04/12 07:10:17;;;;;;;10.57;7.97;;;7.30;99.90;;;;;;5065766;28;20200;-84
2022/04/12 07:12:44;;;;;;;12.48;8.10;;;7.30;1.00;;;;;;5064388;28;20231;-83
2022/04/12 07:15:14;;;;;;;14.57;7.95;;;7.40;1.00;;;;;;5063821;28;20220;-83
2022/04/12 07:17:40;;;;;;;10.50;7.03;;;7.60;1.00;;;;;;5063769;28;20285;-83
2022/04/12 07:20:08;;;;;;;12.27;6.40;;;7.70;1.00;;;;;;5064253;28;20201;-83
2022/04/12 07:22:35;;;;;;;11.97;6.50;;;7.90;1.00;;;;;;5063624;28;20205;-83
2022/04/12 07:25:03;;;;;;;6.97;5.37;;;8.10;1.00;;;;;;5062505;28;20513;-84
2022/04/12 07:27:33;;;;;;;6.73;5.37;;;8.20;1.00;;;;;;5060971;28;20447;-83
2022/04/12 07:30:00;;;;;;;7.22;6.28;;;8.40;1.00;;;;;;5065449;28;20847;-83
2022/04/12 07:32:26;;;;;;;10.50;6.30;;;8.60;1.00;;;;;;5078449;28;20198;-82
2022/04/12 07:34:53;;;;;;;10.73;5.50;;;8.80;1.00;;;;;;5078092;28;20442;-82
2022/04/12 07:37:20;;;;;;;7.00;5.60;;;;;;;;;;5074002;28;20469;-83
2022/04/12 07:39:47;;;;;;;6.03;5.23;;;9.00;1.00;;;;;;5068629;28;20452;-82
2022/04/12 07:42:15;;;;;;;7.83;4.90;;;9.00;1.00;;;;;;5064434;28;20501;-83
2022/04/12 07:44:42;;;;;;;7.23;5.03;;;9.00;1.00;;;;;;5063223;28;20452;-83
2022/04/12 07:47:09;;;;;;;8.63;5.40;;;9.30;1.00;;;;;;5063258;28;20560;-82
2022/04/12 07:49:35;;;;;;;6.87;5.63;;;9.50;1.00;;;;;;5064074;28;20512;-83
2022/04/12 07:52:05;;;;;;;7.63;5.40;;;9.50;1.00;;;;;;5065050;28;20445;-83
2022/04/12 07:54:32;;;;;;;6.73;5.00;;;9.70;1.00;;;;;;5065441;28;20412;-85
2022/04/12 07:56:58;;;;;;;5.93;4.43;;;9.70;99.90;;;;;;5061646;28;20485;-83
2022/04/12 07:59:26;;;;;;;6.73;4.37;;;9.90;1.00;;;;;;5060605;28;20420;-84
2022/04/12 08:01:53;;;;;;;8.70;5.80;;;;;;;;;;5070048;28;20422;-81
2022/04/12 08:04:20;;;;;;;5.83;5.10;;;10.10;99.90;;;;;;5062223;28;20400;-80
2022/04/12 08:06:47;;;;;;;5.33;4.60;;;11.80;99.90;;;;;;5078845;28;20446;-82
2022/04/12 08:09:14;;;;;;;5.40;4.90;;;10.30;99.90;;;;;;5079112;28;20423;-81
2022/04/12 08:11:40;;;;;;;5.20;4.70;;;10.30;99.90;;;;;;5079162;28;20436;-82
2022/04/12 08:14:07;;;;;;;5.57;4.40;;;10.50;99.90;;;;;;5074573;28;20503;-83
2022/04/12 08:16:35;;;;;;;7.53;4.67;;;10.70;99.90;;;;;;5069696;28;20477;-83
2022/04/12 08:19:02;;;;;;;4.67;4.10;;;10.90;99.90;;;;;;5068342;28;20464;-84
2022/04/12 08:21:33;;;;;;;5.10;4.70;;;11.00;99.90;;;;;;5064542;28;20765;-84
2022/04/12 08:24:00;;;;;;;4.90;3.80;;;13.20;99.90;;;;;;5063570;28;20457;-82
2022/04/12 08:26:27;;;;;;;5.63;4.67;;;11.30;1.00;;;;;;5061858;28;20417;-83
2022/04/12 08:28:53;;;;;;;9.30;4.93;;;11.20;99.90;;;;;;5064150;28;20564;-85
2022/04/12 08:31:20;;;;;;;4.43;3.80;;;11.20;99.90;;;;;;5064710;28;20552;-84
2022/04/12 08:33:48;;;;;;;7.23;4.70;;;11.40;99.90;;;;;;5071194;28;20426;-82
2022/04/12 08:36:16;;;;;;;7.27;4.90;;;11.70;1.00;;;;;;5076222;28;20477;-83
2022/04/12 08:38:44;;;;;;;7.63;4.03;;;11.60;99.90;;;;;;5075766;28;20430;-83
2022/04/12 08:41:10;;;;;;;8.43;5.10;;;11.60;99.90;;;;;;5076660;28;20441;-83
2022/04/12 08:43:40;;;;;;;8.07;4.30;;;11.60;99.90;;;;;;5077297;28;20421;-82
2022/04/12 08:46:08;;;;;;;7.50;5.03;;;11.70;99.90;;;;;;5077355;28;20414;-82
2022/04/12 08:48:35;;;;;;;6.73;4.70;;;11.80;99.90;;;;;;5077677;28;20458;-82
2022/04/12 08:51:03;;;;;;;7.73;4.63;;;12.00;99.90;;;;;;5077649;28;20433;-82
2022/04/12 08:53:31;;;;;;;7.50;5.40;;;12.10;99.90;;;;;;5068550;28;20446;-83
2022/04/12 08:55:57;;;;;;;9.47;4.90;;;12.10;99.90;;;;;;5063661;28;20497;-83
2022/04/12 08:58:25;;;;;;;6.70;4.70;;;12.20;99.90;;;;;;5063499;28;20474;-84
2022/04/12 09:00:51;;;;;;;10.10;5.20;;;12.20;99.90;;;;;;5064641;28;20476;-84
2022/04/12 09:03:18;;;;;;;6.00;5.03;;;12.00;99.90;;;;;;5065088;28;20475;-83
2022/04/12 09:05:45;;;;;;;5.03;4.53;;;12.00;99.90;;;;;;5070809;28;20438;-83
2022/04/12 09:08:27;;;;;;;6.63;5.10;;;12.10;99.90;;;;;;5070644;28;20813;-83
2022/04/12 09:10:58;;;;;;;8.43;6.17;;;12.10;99.90;;;;;;5063819;28;20511;-83
2022/04/12 09:13:25;;;;;;;8.23;5.33;;;12.20;99.90;;;;;;5060944;28;20940;-83
2022/04/12 09:15:52;;;;;;;7.40;5.40;;;12.50;99.90;;;;;;5060613;28;20841;-83
2022/04/12 09:18:32;;;;;;;6.20;5.00;;;12.30;99.90;;;;;;5059893;28;20465;-85
2022/04/12 09:21:11;;;;;;;7.30;5.47;;;12.20;99.90;;;;;;5062746;28;20931;-83
2022/04/12 09:23:42;;;;;;;9.43;5.40;;;12.80;99.90;;;;;;5061628;28;20429;-82
2022/04/12 09:26:09;;;;;;;4.87;4.10;;;12.90;99.90;;;;;;5061842;28;20446;-83
2022/04/12 09:28:42;;;;;;;9.17;5.57;;;13.00;99.90;;;;;;5061882;28;20474;-83
2022/04/12 09:31:13;;;;;;;8.57;5.50;;;13.20;99.90;;;;;;5062348;28;20449;-83
2022/04/12 09:33:40;;;;;;;6.63;5.70;;;13.10;99.90;;;;;;5061960;28;20941;-83
2022/04/12 09:36:07;;;;;;;7.73;5.43;;;13.20;1.00;;;;;;5062073;28;20510;-82
2022/04/12 09:38:34;;;;;;;8.10;5.07;;;13.00;99.90;;;;;;5061837;28;20887;-83
2022/04/12 09:41:17;;;;;;;6.27;5.67;;;13.10;99.90;;;;;;5072225;28;20507;-81
2022/04/12 09:43:55;;;;;;;6.80;5.33;;;13.10;99.90;;;;;;5076863;28;20440;-82
2022/04/12 09:46:22;;;;;;;6.17;5.17;;;13.10;1.00;;;;;;5075224;28;20456;-82
2022/04/12 09:48:50;;;;;;;8.20;6.30;;;13.20;1.00;;;;;;5062496;28;20426;-84
2022/04/12 09:51:17;;;;;;;6.20;5.60;;;;;;;;;;5065877;28;20476;-83
2022/04/12 09:53:46;;;;;;;6.00;5.40;;;13.10;99.90;;;;;;5065888;28;20441;-82
2022/04/12 09:56:19;;;;;;;6.67;5.93;;;13.20;99.90;;;;;;5074981;28;20472;-82
2022/04/12 09:58:48;;;;;;;5.53;5.00;;;13.20;99.90;;;;;;5073365;28;20426;-83
2022/04/12 10:01:15;;;;;;;11.50;5.80;;;13.20;99.90;;;;;;5072716;28;20445;-83
2022/04/12 10:03:48;;;;;;;7.10;4.70;;;13.20;99.90;;;;;;5076465;28;20442;-83
2022/04/12 10:06:18;;;;;;;10.33;6.30;;;13.60;99.90;;;;;;5072175;28;20429;-83
2022/04/12 10:08:45;;;;;;;8.53;5.83;;;13.50;99.90;;;;;;5067934;28;20446;-83
2022/04/12 10:11:13;;;;;;;5.17;4.67;;;13.70;99.90;;;;;;5067174;28;20445;-83
2022/04/12 10:13:41;;;;;;;10.47;5.20;;;13.70;99.90;;;;;;5066450;28;20804;-82
2022/04/12 10:16:10;;;;;;;8.70;6.20;;;13.00;99.90;;;;;;5067892;28;20477;-83
2022/04/12 10:18:37;;;;;;;8.90;6.37;;;13.50;99.90;;;;;;5073875;28;20436;-82
2022/04/12 10:21:04;;;;;;;8.53;4.60;;;13.80;99.90;;;;;;5067048;28;20496;-83
2022/04/12 10:23:31;;;;;;;6.30;4.53;;;13.50;99.90;;;;;;5066030;28;20450;-83
2022/04/12 10:25:59;;;;;;;7.40;4.43;;;13.40;99.90;;;;;;5066355;28;20441;-83
2022/04/12 10:28:27;;;;;;;7.00;5.07;;;13.60;99.90;;;;;;5065911;28;20473;-83
2022/04/12 10:31:04;;;;;;;5.50;5.00;;;13.60;99.90;;;;;;5066358;28;20454;-83
2022/04/12 10:33:33;;;;;;;5.80;5.03;;;13.50;99.90;;;;;;5065039;28;20840;-83
2022/04/12 10:36:02;;;;;;;7.17;5.83;;;13.50;99.90;;;;;;5065743;28;20499;-83
2022/04/12 10:38:39;;;;;;;5.57;4.87;;;13.70;99.90;;;;;;5071476;28;20497;-83
2022/04/12 10:41:13;;;;;;;5.07;4.57;;;13.90;99.90;;;;;;5065803;28;20441;-82
2022/04/12 10:43:41;;;;;;;5.83;5.13;;;14.10;99.90;;;;;;5072898;28;20425;-83
2022/04/12 10:46:14;;;;;;;9.93;5.67;;;14.10;99.90;;;;;;5069508;28;20445;-83
2022/04/12 10:48:41;;;;;;;5.67;4.60;;;14.20;99.90;;;;;;5070424;28;20517;-83
2022/04/12 10:51:08;;;;;;;6.20;5.60;;;14.20;99.90;;;;;;5065638;28;20451;-83
2022/04/12 10:53:54;;;;;;;7.40;5.20;;;14.20;99.90;;;;;;5066742;28;20434;-83
2022/04/12 10:56:25;;;;;;;10.67;6.33;;;14.10;1.00;;;;;;5066825;28;20486;-82
2022/04/12 10:58:52;;;;;;;8.17;5.93;;;14.20;99.90;;;;;;5066932;28;20506;-83
2022/04/12 11:01:31;;;;;;;7.87;6.03;;;14.40;99.90;;;;;;5065513;28;20444;-84
2022/04/12 11:04:01;;;;;;;7.53;5.43;;;14.30;99.90;;;;;;5067211;28;20791;-82
2022/04/12 11:06:30;;;;;;;8.07;5.57;;;14.10;1.00;;;;;;5069960;28;20426;-82
2022/04/12 11:09:07;;;;;;;8.43;5.40;;;14.40;99.90;;;;;;5065069;28;20587;-83
2022/04/12 11:11:38;;;;;;;7.33;5.33;;;14.50;99.90;;;;;;5065281;28;20905;-83
2022/04/12 11:14:27;;;;;;;7.33;5.03;;;14.30;99.90;;;;;;5065053;28;20447;-83
2022/04/12 11:17:01;;;;;;;8.60;5.53;;;14.20;99.90;;;;;;5062689;28;20489;-83
2022/04/12 11:19:28;;;;;;;6.17;5.13;;;14.40;99.90;;;;;;5062626;28;20481;-84
2022/04/12 11:22:03;;;;;;;6.03;5.33;;;14.60;99.90;;;;;;5062747;28;20500;-83
2022/04/12 11:24:30;;;;;;;5.60;5.10;;;14.80;99.90;;;;;;5066436;28;20497;-84
2022/04/12 11:27:05;;;;;;;5.90;5.30;;;14.60;99.90;;;;;;5079189;28;20443;-81
2022/04/12 11:29:32;;;;;;;5.30;4.80;;;14.40;1.00;;;;;;5079474;28;20453;-81
2022/04/12 11:32:00;;;;;;;7.90;4.97;;;14.60;99.90;;;;;;5079412;28;20427;-80
2022/04/12 11:34:29;;;;;;;10.53;5.40;;;14.70;99.90;;;;;;5079022;28;20433;-81
2022/04/12 11:36:57;;;;;;;7.33;5.43;;;14.60;1.00;;;;;;5079115;28;20497;-81
2022/04/12 11:39:25;;;;;;;6.40;5.20;;;14.60;99.90;;;;;;5077772;28;20483;-83
2022/04/12 11:41:57;;;;;;;6.37;4.60;;;14.70;99.90;;;;;;5064517;28;20576;-83
2022/04/12 11:44:24;;;;;;;5.53;4.50;;;14.80;99.90;;;;;;5064590;28;20414;-83
2022/04/12 11:46:56;;;;;;;6.50;4.57;;;14.90;99.90;;;;;;5063387;28;20545;-82
2022/04/12 11:49:28;;;;;;;4.87;4.33;;;14.90;99.90;;;;;;5063612;28;20504;-82
2022/04/12 11:51:55;;;;;;;6.63;4.67;;;15.00;99.90;;;;;;5061832;28;20528;-83
2022/04/12 11:54:24;;;;;;;5.03;4.40;;;14.80;99.90;;;;;;5061955;28;20818;-83
2022/04/12 11:57:00;;;;;;;5.43;4.77;;;15.20;1.00;;;;;;5067119;28;20491;-83
2022/04/12 11:59:27;;;;;;;5.10;4.60;;;15.10;99.90;;;;;;5075578;28;20463;-83
2022/04/12 12:01:56;;;;;;;5.93;5.27;;;15.40;99.90;;;;;;5076684;28;20458;-82
2022/04/12 12:04:28;;;;;;;7.77;6.00;;;15.20;99.90;;;;;;5077341;28;20440;-81
2022/04/12 12:06:57;;;;;;;5.93;5.40;;;15.20;99.90;;;;;;5078548;28;20488;-80
2022/04/12 12:09:24;;;;;;;9.60;6.57;;;14.90;99.90;;;;;;5076117;28;20433;-82
2022/04/12 12:11:50;;;;;;;5.30;4.80;;;15.10;99.90;;;;;;5067399;28;20966;-84
2022/04/12 12:14:17;;;;;;;5.97;5.37;;;15.00;99.90;;;;;;5066458;28;20459;-83
2022/04/12 12:16:43;;;;;;;7.30;4.40;;;15.20;99.90;;;;;;5065116;28;20493;-83
2022/04/12 12:19:14;;;;;;;5.13;4.73;;;15.40;99.90;;;;;;5063365;28;20501;-83
2022/04/12 12:21:45;;;;;;;6.27;5.00;;;15.40;99.90;;;;;;5043029;28;20452;-83
2022/04/12 12:24:12;;;;;;;5.20;4.63;;;15.20;99.90;;;;;;5062941;28;20430;-83
2022/04/12 12:26:41;;;;;;;5.67;4.60;;;15.20;99.90;;;;;;5063243;28;20509;-83
2022/04/12 12:29:09;;;;;;;6.27;5.80;;;15.40;99.90;;;;;;5062960;28;20484;-83
2022/04/12 12:31:42;;;;;;;9.23;4.80;;;15.40;99.90;;;;;;5063040;28;20976;-83
2022/04/12 12:34:09;;;;;;;4.97;4.20;;;15.40;99.90;;;;;;5063118;28;20447;-83
2022/04/12 12:36:35;;;;;;;6.03;4.80;;;15.40;99.90;;;;;;5063286;28;20482;-84
2022/04/12 12:39:08;;;;;;;5.57;4.90;;;15.40;99.90;;;;;;5062606;28;20871;-82
2022/04/12 12:41:35;;;;;;;3.73;3.43;;;15.70;1.00;;;;;;5064796;28;20436;-84
2022/04/12 12:44:02;;;;;;;6.07;4.70;;;15.60;99.90;;;;;;5064785;28;20452;-82
2022/04/12 12:49:16;;;;;;;3.97;3.67;;;15.80;99.90;;;;;;5057046;28;20475;-81
2022/04/12 12:51:43;;;;;;;5.10;4.70;;;15.70;99.90;;;;;;5057382;28;20916;-81
2022/04/12 12:54:17;;;;;;;5.90;4.10;;;15.50;99.90;;;;;;5058572;28;20499;-80
2022/04/12 12:56:47;;;;;;;6.70;4.27;;;15.00;99.90;;;;;;5059034;28;20522;-81
2022/04/12 12:59:16;;;;;;;5.13;4.60;;;15.40;99.90;;;;;;5059843;28;20508;-78
2022/04/12 13:01:44;;;;;;;5.40;4.90;;;15.70;99.90;;;;;;5060694;28;20451;-79
2022/04/12 13:04:20;;;;;;;10.40;7.17;;;15.50;99.90;;;;;;5057464;28;21031;-80